Time;durP1;ratioP1;P1;durP2;ratioP2;P2;SDS_P1;SDS_P2;PMS_P1;PMS_P2;Temp;Humidity;BMP_temperature;BMP_pressure;BME280_temperature;BME280_humidity;BME280_pressure;Samples;Min_cycle;Max_cycle;Signal;HPM_P1;HPM_P2
2021/05/07 00:01:06;;;;;;;0.60;0.60;;;4.90;99.90;;;;;;5069734;28;20212;-79
2021/05/07 00:03:33;;;;;;;0.60;0.60;;;4.90;99.90;;;;;;5069399;28;20252;-79
2021/05/07 00:06:02;;;;;;;0.60;0.60;;;4.90;99.90;;;;;;5069111;28;20219;-79
2021/05/07 00:08:32;;;;;;;0.60;0.60;;;4.90;99.90;;;;;;5069748;28;20318;-80
2021/05/07 00:11:00;;;;;;;0.60;0.60;;;5.00;99.90;;;;;;5069912;28;20819;-80
2021/05/07 00:13:26;;;;;;;0.60;0.60;;;4.90;99.90;;;;;;5069398;28;20228;-80
2021/05/07 00:15:52;;;;;;;0.60;0.60;;;4.80;99.90;;;;;;5069508;28;20204;-80
2021/05/07 00:18:19;;;;;;;0.60;0.60;;;4.80;99.90;;;;;;5069921;28;20476;-80
2021/05/07 00:20:45;;;;;;;0.50;0.50;;;4.80;99.90;;;;;;5069718;28;20210;-80
2021/05/07 00:23:11;;;;;;;0.60;0.60;;;4.80;99.90;;;;;;5069518;28;20215;-80
2021/05/07 00:25:39;;;;;;;0.60;0.60;;;4.70;99.90;;;;;;5069207;28;20520;-80
2021/05/07 00:28:07;;;;;;;0.60;0.60;;;4.60;99.90;;;;;;5069678;28;20216;-80
2021/05/07 00:30:35;;;;;;;0.60;0.60;;;4.70;99.90;;;;;;5069447;28;20227;-80
2021/05/07 00:33:01;;;;;;;0.60;0.60;;;4.60;99.90;;;;;;5069179;28;20199;-78
2021/05/07 00:35:27;;;;;;;0.60;0.60;;;4.60;99.90;;;;;;5069241;28;20557;-79
2021/05/07 00:37:54;;;;;;;0.60;0.60;;;4.60;99.90;;;;;;5069750;28;20203;-79
2021/05/07 00:40:21;;;;;;;0.60;0.60;;;4.60;99.90;;;;;;5069342;28;20196;-79
2021/05/07 00:42:48;;;;;;;0.50;0.50;;;4.60;99.90;;;;;;5068946;28;20230;-79
2021/05/07 00:45:16;;;;;;;0.60;0.60;;;4.60;99.90;;;;;;5069273;28;20518;-79
2021/05/07 00:47:47;;;;;;;0.60;0.60;;;4.60;99.90;;;;;;5069439;28;20208;-79
2021/05/07 00:50:14;;;;;;;0.60;0.60;;;4.60;99.90;;;;;;5069397;28;20227;-79
2021/05/07 00:52:40;;;;;;;0.60;0.60;;;4.60;99.90;;;;;;5068895;28;20212;-79
2021/05/07 00:55:07;;;;;;;0.60;0.60;;;4.60;99.90;;;;;;5068954;28;20738;-79
2021/05/07 00:57:36;;;;;;;0.60;0.60;;;4.60;99.90;;;;;;5069066;28;20210;-79
2021/05/07 01:00:05;;;;;;;0.60;0.60;;;4.60;99.90;;;;;;5069466;28;20606;-79
2021/05/07 01:02:31;;;;;;;0.60;0.60;;;4.70;99.90;;;;;;5068988;28;20199;-79
2021/05/07 01:05:00;;;;;;;0.60;0.60;;;4.80;99.90;;;;;;5069114;28;20616;-79
2021/05/07 01:07:26;;;;;;;0.60;0.60;;;4.70;99.90;;;;;;5068818;28;20203;-79
2021/05/07 01:09:53;;;;;;;0.60;0.60;;;4.70;99.90;;;;;;5069284;28;20285;-79
2021/05/07 01:12:19;;;;;;;0.60;0.60;;;4.80;99.90;;;;;;5068542;28;20239;-79
2021/05/07 01:15:04;;;;;;;0.60;0.60;;;4.90;99.90;;;;;;5068857;28;20579;-79
2021/05/07 01:17:31;;;;;;;0.60;0.60;;;4.90;99.90;;;;;;5069960;28;20203;-79
2021/05/07 01:20:09;;;;;;;0.50;0.50;;;4.90;99.90;;;;;;5073311;28;20253;-79
2021/05/07 01:22:37;;;;;;;0.60;0.60;;;5.10;99.90;;;;;;5072996;28;20466;-79
2021/05/07 01:25:05;;;;;;;0.60;0.60;;;4.80;99.90;;;;;;5073192;28;20203;-79
2021/05/07 01:27:36;;;;;;;0.60;0.60;;;4.80;99.90;;;;;;5072555;28;20228;-79
2021/05/07 01:30:09;;;;;;;0.60;0.60;;;4.70;99.90;;;;;;5072816;28;20234;-79
2021/05/07 01:32:35;;;;;;;0.50;0.50;;;4.50;99.90;;;;;;5072784;28;20286;-79
2021/05/07 01:35:04;;;;;;;0.60;0.60;;;4.50;99.90;;;;;;5072501;28;20227;-79
2021/05/07 01:37:31;;;;;;;0.60;0.60;;;4.50;99.90;;;;;;5072395;28;20212;-79
2021/05/07 01:39:57;;;;;;;0.60;0.60;;;4.50;99.90;;;;;;5072726;28;20658;-79
2021/05/07 01:42:23;;;;;;;0.57;0.57;;;4.40;99.90;;;;;;5072306;28;20211;-79
2021/05/07 01:44:49;;;;;;;0.60;0.60;;;4.40;99.90;;;;;;5072269;28;20207;-79
2021/05/07 01:47:15;;;;;;;0.60;0.60;;;4.40;99.90;;;;;;5072662;28;20670;-79
2021/05/07 01:49:42;;;;;;;0.60;0.60;;;4.40;99.90;;;;;;5072137;28;20701;-79
2021/05/07 01:52:08;;;;;;;0.60;0.60;;;5.90;99.90;;;;;;5072062;28;20690;-79
2021/05/07 01:54:35;;;;;;;0.60;0.60;;;4.40;99.90;;;;;;5072262;28;20226;-79
2021/05/07 01:57:01;;;;;;;0.52;0.52;;;4.30;99.90;;;;;;5072602;28;20222;-79
2021/05/07 01:59:30;;;;;;;0.57;0.57;;;4.30;99.90;;;;;;5072169;28;20195;-79
2021/05/07 02:01:56;;;;;;;0.57;0.57;;;4.30;99.90;;;;;;5071651;28;20235;-79
2021/05/07 02:04:22;;;;;;;0.60;0.60;;;4.20;99.90;;;;;;5072376;28;20273;-79
2021/05/07 02:06:48;;;;;;;0.60;0.60;;;4.20;99.90;;;;;;5072050;28;20215;-79
2021/05/07 02:09:14;;;;;;;0.60;0.60;;;4.20;99.90;;;;;;5071844;28;20258;-79
2021/05/07 02:11:41;;;;;;;0.55;0.55;;;4.20;99.90;;;;;;5071966;28;20222;-79
2021/05/07 02:14:07;;;;;;;0.60;0.60;;;4.20;99.90;;;;;;5072248;28;20208;-79
2021/05/07 02:16:33;;;;;;;0.60;0.60;;;4.10;99.90;;;;;;5071647;28;20207;-79
2021/05/07 02:19:00;;;;;;;0.60;0.60;;;4.00;99.90;;;;;;5071746;28;20208;-79
2021/05/07 02:21:26;;;;;;;0.55;0.55;;;4.00;99.90;;;;;;5072147;28;20207;-79
2021/05/07 02:23:52;;;;;;;0.60;0.60;;;4.00;99.90;;;;;;5071532;28;20207;-78
2021/05/07 02:26:18;;;;;;;0.60;0.60;;;3.90;99.90;;;;;;5071493;28;20227;-78
2021/05/07 02:28:45;;;;;;;0.60;0.60;;;3.90;99.90;;;;;;5071420;28;20228;-77
2021/05/07 02:31:11;;;;;;;0.60;0.60;;;3.70;99.90;;;;;;5071371;28;20241;-78
2021/05/07 02:33:38;;;;;;;0.50;0.50;;;3.70;99.90;;;;;;5071388;28;20208;-78
2021/05/07 02:36:05;;;;;;;0.60;0.60;;;3.80;99.90;;;;;;5071555;28;20199;-78
2021/05/07 02:38:34;;;;;;;0.60;0.60;;;3.90;99.90;;;;;;5071879;28;20219;-78
2021/05/07 02:41:00;;;;;;;0.60;0.60;;;3.80;99.90;;;;;;5071299;28;20207;-78
2021/05/07 02:43:28;;;;;;;0.57;0.57;;;4.80;99.90;;;;;;5071217;28;20203;-78
2021/05/07 02:45:55;;;;;;;0.57;0.57;;;3.80;99.90;;;;;;5071175;28;20545;-78
2021/05/07 02:48:24;;;;;;;0.60;0.60;;;3.90;99.90;;;;;;5071600;28;20215;-78
2021/05/07 02:50:50;;;;;;;0.60;0.60;;;3.90;99.90;;;;;;5071334;28;20199;-78
2021/05/07 02:53:16;;;;;;;0.60;0.60;;;3.90;99.90;;;;;;5071127;28;20211;-78
2021/05/07 02:55:43;;;;;;;0.60;0.60;;;4.00;99.90;;;;;;5070981;28;20199;-78
2021/05/07 02:58:09;;;;;;;0.60;0.60;;;3.90;99.90;;;;;;5071249;28;20203;-78
2021/05/07 03:00:38;;;;;;;0.60;0.60;;;3.90;99.90;;;;;;5071073;28;20210;-78
2021/05/07 03:03:05;;;;;;;0.60;0.60;;;3.80;99.90;;;;;;5070708;28;20261;-78
2021/05/07 03:05:33;;;;;;;0.60;0.60;;;3.80;99.90;;;;;;5071056;28;20207;-78
2021/05/07 03:08:01;;;;;;;0.60;0.60;;;5.40;99.90;;;;;;5071435;28;20223;-78
2021/05/07 03:10:27;;;;;;;0.60;0.60;;;3.80;99.90;;;;;;5070861;28;20224;-78
2021/05/07 03:12:54;;;;;;;0.60;0.60;;;3.80;99.90;;;;;;5070524;28;20242;-79
2021/05/07 03:15:22;;;;;;;0.60;0.60;;;3.80;99.90;;;;;;5070760;28;20549;-78
2021/05/07 03:17:53;;;;;;;0.60;0.60;;;3.80;99.90;;;;;;5070857;28;20617;-78
2021/05/07 03:20:21;;;;;;;0.60;0.60;;;3.80;99.90;;;;;;5071028;28;20203;-77
2021/05/07 03:22:47;;;;;;;0.60;0.60;;;3.80;99.90;;;;;;5070448;28;20681;-78
2021/05/07 03:25:14;;;;;;;0.60;0.60;;;3.80;99.90;;;;;;5070491;28;20256;-78
2021/05/07 03:27:40;;;;;;;0.60;0.60;;;3.80;99.90;;;;;;5070410;28;20589;-77
2021/05/07 03:30:12;;;;;;;0.60;0.60;;;3.90;99.90;;;;;;5070635;28;20595;-77
2021/05/07 03:32:38;;;;;;;0.60;0.60;;;3.90;99.90;;;;;;5070646;28;20213;-77
2021/05/07 03:35:05;;;;;;;0.50;0.50;;;3.90;99.90;;;;;;5070174;28;20207;-77
2021/05/07 03:37:33;;;;;;;0.60;0.60;;;4.00;99.90;;;;;;5070293;28;20199;-77
2021/05/07 03:39:59;;;;;;;0.60;0.60;;;4.00;99.90;;;;;;5070371;28;20200;-77
2021/05/07 03:42:25;;;;;;;0.60;0.60;;;3.90;99.90;;;;;;5069183;28;20203;-77
2021/05/07 03:44:51;;;;;;;0.60;0.60;;;4.00;99.90;;;;;;5069888;28;20233;-77
2021/05/07 03:47:20;;;;;;;0.60;0.60;;;4.00;99.90;;;;;;5070805;28;20204;-77
2021/05/07 03:49:46;;;;;;;0.60;0.60;;;4.00;99.90;;;;;;5070248;28;20234;-77
2021/05/07 03:52:12;;;;;;;0.60;0.60;;;4.00;99.90;;;;;;5069902;28;20200;-78
2021/05/07 03:54:40;;;;;;;0.60;0.60;;;4.00;99.90;;;;;;5070119;28;20208;-78
2021/05/07 03:57:07;;;;;;;0.57;0.57;;;4.10;99.90;;;;;;5070009;28;20654;-77
2021/05/07 03:59:33;;;;;;;0.60;0.60;;;4.10;99.90;;;;;;5070021;28;20662;-78
2021/05/07 04:02:02;;;;;;;0.52;0.52;;;4.10;99.90;;;;;;5069531;28;20211;-78
2021/05/07 04:04:32;;;;;;;0.55;0.55;;;3.60;99.90;;;;;;5069686;28;20319;-79
2021/05/07 04:06:58;;;;;;;0.57;0.57;;;4.00;99.90;;;;;;5069547;28;20410;-79
2021/05/07 04:09:30;;;;;;;0.60;0.60;;;4.00;99.90;;;;;;5069869;28;20223;-80
2021/05/07 04:12:00;;;;;;;0.50;0.50;;;4.00;99.90;;;;;;5069732;28;20242;-80
2021/05/07 04:14:26;;;;;;;0.60;0.60;;;4.00;99.90;;;;;;5070190;28;20214;-80
2021/05/07 04:16:52;;;;;;;0.60;0.60;;;4.00;99.90;;;;;;5069404;28;20214;-80
2021/05/07 04:19:20;;;;;;;0.60;0.60;;;4.00;99.90;;;;;;5069386;28;20711;-80
2021/05/07 04:21:46;;;;;;;0.60;0.60;;;3.90;99.90;;;;;;5069826;28;20208;-80
2021/05/07 04:24:12;;;;;;;0.60;0.60;;;3.90;99.90;;;;;;5069457;28;20211;-80
2021/05/07 04:26:40;;;;;;;0.50;0.50;;;3.90;99.90;;;;;;5069292;28;20231;-80
2021/05/07 04:29:07;;;;;;;0.52;0.52;;;3.90;99.90;;;;;;5069412;28;20223;-80
2021/05/07 04:31:33;;;;;;;0.50;0.50;;;3.80;99.90;;;;;;5069811;28;20211;-80
2021/05/07 04:33:59;;;;;;;0.50;0.50;;;3.80;99.90;;;;;;5069077;28;20623;-80
2021/05/07 04:36:27;;;;;;;0.60;0.60;;;3.90;99.90;;;;;;5069098;28;20207;-80
2021/05/07 04:38:57;;;;;;;0.60;0.60;;;3.90;99.90;;;;;;5069662;28;20204;-80
2021/05/07 04:41:23;;;;;;;0.60;0.60;;;3.90;99.90;;;;;;5069562;28;20203;-80
2021/05/07 04:43:49;;;;;;;0.55;0.55;;;3.80;99.90;;;;;;5069437;28;20257;-81
2021/05/07 04:46:27;;;;;;;0.50;0.50;;;3.80;99.90;;;;;;5069632;28;20200;-80
2021/05/07 04:48:57;;;;;;;0.50;0.50;;;3.80;99.90;;;;;;5068829;28;20268;-80
2021/05/07 04:51:26;;;;;;;0.60;0.60;;;2.40;99.90;;;;;;5069249;28;20222;-81
2021/05/07 04:53:54;;;;;;;0.60;0.60;;;4.10;99.90;;;;;;5068803;28;20235;-81
2021/05/07 04:56:20;;;;;;;0.50;0.50;;;4.40;99.90;;;;;;5069200;28;20269;-81
2021/05/07 04:58:47;;;;;;;0.57;0.57;;;3.40;99.90;;;;;;5069463;28;20199;-81
2021/05/07 05:01:13;;;;;;;0.50;0.50;;;5.90;99.90;;;;;;5069149;28;20286;-81
2021/05/07 05:03:40;;;;;;;0.50;0.50;;;3.60;99.90;;;;;;5069289;28;20547;-80
2021/05/07 05:06:06;;;;;;;0.60;0.60;;;3.90;99.90;;;;;;5069278;28;20424;-78
2021/05/07 05:08:32;;;;;;;0.60;0.60;;;3.90;99.90;;;;;;5069654;28;20203;-80
2021/05/07 05:11:04;;;;;;;0.50;0.50;;;3.80;99.90;;;;;;5068797;28;20230;-79
2021/05/07 05:13:30;;;;;;;0.60;0.60;;;3.50;99.90;;;;;;5068760;28;20242;-78
2021/05/07 05:15:57;;;;;;;0.60;0.60;;;3.90;99.90;;;;;;5069029;28;20211;-78
2021/05/07 05:18:27;;;;;;;0.60;0.60;;;4.30;99.90;;;;;;5069426;28;20673;-79
2021/05/07 05:20:55;;;;;;;0.60;0.60;;;4.00;99.90;;;;;;5065131;28;20315;-79
2021/05/07 05:23:21;;;;;;;0.60;0.60;;;4.00;99.90;;;;;;5050212;28;20204;-78
2021/05/07 05:25:48;;;;;;;0.60;0.60;;;4.00;99.90;;;;;;5051044;28;20574;-79
2021/05/07 05:28:14;;;;;;;0.50;0.50;;;4.00;99.90;;;;;;5048955;28;20254;-78
2021/05/07 05:30:40;;;;;;;0.60;0.60;;;4.10;99.90;;;;;;5043645;28;20224;-79
2021/05/07 05:33:07;;;;;;;0.60;0.60;;;4.00;99.90;;;;;;5047437;28;20204;-79
2021/05/07 05:35:33;;;;;;;0.60;0.60;;;4.10;99.90;;;;;;5048387;28;20212;-79
2021/05/07 05:38:00;;;;;;;0.50;0.50;;;3.90;99.90;;;;;;5049126;28;20205;-79
2021/05/07 05:40:26;;;;;;;0.50;0.50;;;4.10;99.90;;;;;;5048742;28;20215;-78
2021/05/07 05:42:52;;;;;;;0.52;0.52;;;4.00;99.90;;;;;;5048703;28;20706;-78
2021/05/07 05:45:18;;;;;;;0.60;0.60;;;4.00;99.90;;;;;;5049145;28;20266;-78
2021/05/07 05:47:44;;;;;;;0.60;0.60;;;4.00;99.90;;;;;;5048953;28;20216;-78
2021/05/07 05:50:11;;;;;;;0.55;0.55;;;4.00;99.90;;;;;;5049043;28;20228;-79
2021/05/07 05:52:37;;;;;;;0.60;0.60;;;3.90;99.90;;;;;;5048612;28;20724;-79
2021/05/07 05:55:06;;;;;;;0.55;0.55;;;3.90;99.90;;;;;;5048972;28;20208;-78
2021/05/07 05:57:35;;;;;;;0.50;0.50;;;3.90;99.90;;;;;;5048523;28;20296;-80
2021/05/07 06:00:05;;;;;;;0.60;0.60;;;3.70;99.90;;;;;;5048422;28;20681;-81
2021/05/07 06:02:31;;;;;;;0.50;0.50;;;3.90;99.90;;;;;;5048583;28;20212;-80
2021/05/07 06:04:58;;;;;;;0.50;0.50;;;3.90;99.90;;;;;;5049990;28;20729;-80
2021/05/07 06:07:25;;;;;;;0.50;0.50;;;4.00;99.90;;;;;;5052533;28;20208;-80
2021/05/07 06:09:51;;;;;;;0.50;0.50;;;3.90;99.90;;;;;;5051962;28;20366;-80
2021/05/07 06:12:18;;;;;;;0.60;0.60;;;4.00;99.90;;;;;;5051799;28;20240;-81
2021/05/07 06:14:44;;;;;;;0.50;0.50;;;4.00;99.90;;;;;;5052423;28;20209;-80
2021/05/07 06:17:10;;;;;;;0.60;0.60;;;3.90;99.90;;;;;;5052033;28;20204;-81
2021/05/07 06:19:37;;;;;;;0.50;0.50;;;3.90;99.90;;;;;;5052062;28;20208;-81
2021/05/07 06:22:03;;;;;;;0.50;0.50;;;3.90;99.90;;;;;;5052072;28;20813;-81
2021/05/07 06:24:29;;;;;;;0.60;0.60;;;4.00;99.90;;;;;;5051942;28;20557;-81
2021/05/07 06:26:55;;;;;;;0.50;0.50;;;3.90;99.90;;;;;;5051539;28;20239;-81
2021/05/07 06:29:22;;;;;;;0.50;0.50;;;4.00;99.90;;;;;;5052105;28;20224;-80
2021/05/07 06:31:48;;;;;;;0.60;0.60;;;4.10;99.90;;;;;;5052152;28;20235;-80
2021/05/07 06:34:14;;;;;;;0.60;0.60;;;4.20;99.90;;;;;;5051720;28;20204;-80
2021/05/07 06:36:40;;;;;;;0.50;0.50;;;4.20;99.90;;;;;;5051392;28;20212;-80
2021/05/07 06:39:07;;;;;;;0.57;0.57;;;4.30;99.90;;;;;;5057357;28;20191;-80
2021/05/07 06:41:33;;;;;;;0.55;0.55;;;4.30;99.90;;;;;;5056441;28;20200;-80
2021/05/07 06:44:03;;;;;;;0.60;0.60;;;4.30;99.90;;;;;;5051470;28;20223;-80
2021/05/07 06:46:30;;;;;;;0.50;0.50;;;4.40;99.90;;;;;;5051687;28;20208;-79
2021/05/07 06:48:56;;;;;;;0.60;0.60;;;6.50;99.90;;;;;;5051784;28;20200;-79
2021/05/07 06:51:22;;;;;;;0.50;0.50;;;4.40;99.90;;;;;;5051670;28;20208;-79
2021/05/07 06:53:48;;;;;;;0.60;0.60;;;4.30;99.90;;;;;;5051376;28;20215;-79
2021/05/07 06:56:15;;;;;;;0.50;0.50;;;4.30;99.90;;;;;;5051570;28;20204;-80
2021/05/07 06:58:42;;;;;;;0.50;0.50;;;4.30;99.90;;;;;;5051658;28;20295;-79
2021/05/07 07:01:08;;;;;;;0.50;0.50;;;4.30;99.90;;;;;;5051211;28;20257;-81
2021/05/07 07:03:35;;;;;;;0.50;0.50;;;4.30;99.90;;;;;;5051250;28;20211;-80
2021/05/07 07:06:01;;;;;;;0.60;0.60;;;4.40;99.90;;;;;;5051579;28;20211;-77
2021/05/07 07:08:27;;;;;;;0.60;0.60;;;4.30;99.90;;;;;;5051196;28;20208;-78
2021/05/07 07:10:53;;;;;;;0.60;0.60;;;4.30;99.90;;;;;;5050892;28;20228;-78
2021/05/07 07:13:19;;;;;;;0.50;0.50;;;4.30;99.90;;;;;;5051195;28;20232;-79
2021/05/07 07:15:46;;;;;;;0.60;0.60;;;4.40;99.90;;;;;;5050810;28;20208;-82
2021/05/07 07:18:12;;;;;;;0.55;0.55;;;4.40;99.90;;;;;;5050830;28;20214;-81
2021/05/07 07:20:39;;;;;;;0.50;0.50;;;4.60;99.90;;;;;;5051215;28;20749;-76
2021/05/07 07:23:05;;;;;;;0.50;0.50;;;4.60;99.90;;;;;;5051171;28;20212;-77
2021/05/07 07:25:31;;;;;;;0.60;0.60;;;4.60;99.90;;;;;;5051180;28;20255;-81
2021/05/07 07:28:00;;;;;;;0.50;0.50;;;4.70;99.90;;;;;;5050892;28;20219;-79
2021/05/07 07:30:26;;;;;;;0.57;0.57;;;4.80;99.90;;;;;;5051526;28;20228;-79
2021/05/07 07:35:27;;;;;;;0.50;0.50;;;4.80;99.90;;;;;;5055176;26;20243;-78
2021/05/07 07:37:55;;;;;;;0.50;0.50;;;4.70;99.90;;;;;;5050583;28;20200;-80
2021/05/07 07:40:21;;;;;;;0.50;0.50;;;4.40;99.90;;;;;;5050414;28;20200;-80
2021/05/07 07:42:47;;;;;;;0.50;0.50;;;5.80;99.90;;;;;;5050856;28;20285;-80
2021/05/07 07:45:14;;;;;;;0.50;0.50;;;5.10;99.90;;;;;;5050576;28;20200;-80
2021/05/07 07:47:40;;;;;;;0.60;0.60;;;5.20;99.90;;;;;;5050601;28;20215;-80
2021/05/07 07:50:08;;;;;;;0.50;0.50;;;5.10;99.90;;;;;;5050272;28;20281;-80
2021/05/07 07:52:35;;;;;;;0.50;0.50;;;5.20;99.90;;;;;;5050732;28;20254;-80
2021/05/07 07:55:03;;;;;;;0.50;0.50;;;5.10;99.90;;;;;;5050566;28;20651;-80
2021/05/07 07:57:29;;;;;;;0.60;0.60;;;5.20;99.90;;;;;;5050299;28;20208;-80
2021/05/07 07:59:56;;;;;;;0.60;0.60;;;5.20;99.90;;;;;;5050118;28;20204;-79
2021/05/07 08:02:22;;;;;;;0.60;0.60;;;5.10;99.90;;;;;;5050722;28;20204;-79
2021/05/07 08:04:48;;;;;;;0.50;0.50;;;5.10;99.90;;;;;;5050170;28;20295;-79
2021/05/07 08:07:15;;;;;;;0.60;0.60;;;5.20;99.90;;;;;;5049933;28;20208;-80
2021/05/07 08:09:42;;;;;;;0.50;0.50;;;5.20;99.90;;;;;;5050274;28;20231;-77
2021/05/07 08:12:10;;;;;;;0.60;0.60;;;5.30;99.90;;;;;;5050328;28;20208;-80
2021/05/07 08:14:36;;;;;;;0.50;0.50;;;5.30;99.90;;;;;;5048866;28;20232;-80
2021/05/07 08:17:02;;;;;;;0.50;0.50;;;5.30;99.90;;;;;;5047911;28;20250;-80
2021/05/07 08:19:28;;;;;;;0.60;0.60;;;5.30;99.90;;;;;;5050114;28;20204;-80
2021/05/07 08:21:57;;;;;;;0.50;0.50;;;5.30;99.90;;;;;;5049634;28;20204;-80
2021/05/07 08:24:23;;;;;;;0.60;0.60;;;5.40;99.90;;;;;;5049646;28;20223;-79
2021/05/07 08:26:50;;;;;;;0.50;0.50;;;5.30;99.90;;;;;;5049110;28;20231;-80
2021/05/07 08:29:17;;;;;;;0.50;0.50;;;5.40;99.90;;;;;;5049694;28;20232;-80
2021/05/07 08:31:45;;;;;;;0.50;0.50;;;5.50;99.90;;;;;;5049534;28;20201;-80
2021/05/07 08:34:11;;;;;;;0.60;0.60;;;5.80;99.90;;;;;;5049132;28;20714;-80
2021/05/07 08:36:37;;;;;;;0.60;0.60;;;5.70;99.90;;;;;;5049605;28;20430;-80
2021/05/07 08:39:05;;;;;;;0.60;0.60;;;5.70;99.90;;;;;;5049667;28;20204;-80
2021/05/07 08:41:31;;;;;;;0.55;0.55;;;5.70;99.90;;;;;;5049265;28;20208;-80
2021/05/07 08:43:57;;;;;;;0.60;0.60;;;5.70;99.90;;;;;;5049313;28;20219;-80
2021/05/07 08:46:25;;;;;;;0.52;0.52;;;5.90;99.90;;;;;;5049726;28;20200;-79
2021/05/07 08:48:51;;;;;;;0.50;0.50;;;5.90;99.90;;;;;;5049392;28;20211;-80
2021/05/07 08:51:19;;;;;;;0.50;0.50;;;5.90;99.90;;;;;;5049045;28;20235;-80
2021/05/07 08:53:45;;;;;;;0.60;0.60;;;5.90;99.90;;;;;;5049175;28;20419;-80
2021/05/07 08:56:11;;;;;;;0.50;0.50;;;6.10;99.90;;;;;;5049412;28;20211;-80
2021/05/07 08:58:38;;;;;;;0.60;0.60;;;6.20;99.90;;;;;;5049136;28;20208;-79
2021/05/07 09:01:05;;;;;;;0.60;0.60;;;6.10;99.90;;;;;;5049131;28;20253;-80
2021/05/07 09:03:46;;;;;;;0.60;0.60;;;6.00;99.90;;;;;;5049320;28;20612;-79
2021/05/07 09:06:16;;;;;;;0.60;0.60;;;5.90;99.90;;;;;;5049082;28;20204;-80
2021/05/07 09:08:43;;;;;;;0.50;0.50;;;6.00;99.90;;;;;;5044730;28;20219;-80
2021/05/07 09:11:09;;;;;;;0.50;0.50;;;6.30;99.90;;;;;;5047993;28;20224;-80
2021/05/07 09:13:35;;;;;;;0.60;0.60;;;6.00;99.90;;;;;;5048778;28;20266;-80
2021/05/07 09:16:06;;;;;;;0.50;0.50;;;6.10;99.90;;;;;;5048421;28;20212;-80
2021/05/07 09:18:42;;;;;;;0.60;0.60;;;6.20;99.90;;;;;;5048428;28;20204;-80
2021/05/07 09:21:11;;;;;;;0.60;0.60;;;6.30;99.90;;;;;;5048086;28;20199;-80
2021/05/07 09:23:41;;;;;;;0.50;0.50;;;6.40;99.90;;;;;;5048112;28;20262;-79
2021/05/07 09:26:08;;;;;;;0.60;0.60;;;6.70;99.90;;;;;;5048014;28;20574;-79
2021/05/07 09:28:35;;;;;;;0.50;0.50;;;6.90;99.90;;;;;;5048198;28;20204;-80
2021/05/07 09:31:11;;;;;;;0.60;0.60;;;7.00;99.90;;;;;;5048262;28;20239;-80
2021/05/07 09:33:42;;;;;;;0.60;0.60;;;7.10;99.90;;;;;;5048144;28;20236;-80
2021/05/07 09:36:09;;;;;;;0.50;0.50;;;7.20;99.90;;;;;;5048011;28;20216;-80
2021/05/07 09:38:36;;;;;;;0.60;0.60;;;7.40;99.90;;;;;;5049478;28;20207;-80
2021/05/07 09:41:03;;;;;;;0.55;0.55;;;7.40;99.90;;;;;;5051774;28;20200;-80
2021/05/07 09:43:30;;;;;;;0.60;0.60;;;7.50;99.90;;;;;;5051663;28;20291;-79
2021/05/07 09:45:56;;;;;;;0.60;0.60;;;7.80;99.90;;;;;;5052187;28;20208;-80
2021/05/07 09:48:24;;;;;;;0.50;0.50;;;7.90;99.90;;;;;;5051694;28;20740;-80
2021/05/07 09:50:55;;;;;;;0.60;0.60;;;8.00;99.90;;;;;;5051551;28;20232;-79
2021/05/07 09:53:23;;;;;;;0.60;0.60;;;8.00;99.90;;;;;;5051747;28;20211;-79
2021/05/07 09:55:52;;;;;;;0.60;0.60;;;7.70;99.90;;;;;;5051420;28;20270;-79
2021/05/07 09:58:18;;;;;;;0.50;0.50;;;7.50;99.90;;;;;;5051799;28;20566;-79
2021/05/07 10:00:45;;;;;;;0.60;0.60;;;7.30;99.90;;;;;;5051654;28;20211;-79
2021/05/07 10:03:12;;;;;;;0.60;0.60;;;6.90;99.90;;;;;;5051293;28;20216;-80
2021/05/07 10:05:40;;;;;;;0.60;0.60;;;6.30;99.90;;;;;;5051478;28;20655;-80
2021/05/07 10:08:07;;;;;;;0.60;0.60;;;6.00;99.90;;;;;;5051564;28;20249;-80
2021/05/07 10:10:36;;;;;;;0.50;0.50;;;5.70;99.90;;;;;;5051487;28;20772;-80
2021/05/07 10:13:03;;;;;;;0.57;0.57;;;5.60;99.90;;;;;;5051251;28;20251;-81
2021/05/07 10:15:36;;;;;;;0.57;0.57;;;5.00;99.90;;;;;;5051322;28;20212;-79
2021/05/07 10:18:03;;;;;;;0.60;0.60;;;5.00;99.90;;;;;;5051138;28;20289;-80
2021/05/07 10:20:31;;;;;;;0.60;0.60;;;4.90;99.90;;;;;;5050283;28;20201;-85
2021/05/07 10:22:58;;;;;;;0.60;0.60;;;4.70;99.90;;;;;;5051999;28;20200;-80
2021/05/07 10:25:26;;;;;;;0.60;0.60;;;4.60;99.90;;;;;;5051101;28;20514;-80
2021/05/07 10:27:54;;;;;;;0.60;0.60;;;4.70;99.90;;;;;;5051253;28;20235;-79
2021/05/07 10:30:28;;;;;;;0.60;0.60;;;4.80;99.90;;;;;;5050989;28;20530;-80
2021/05/07 10:33:00;;;;;;;0.60;0.60;;;4.90;99.90;;;;;;5051299;28;20204;-80
2021/05/07 10:35:31;;;;;;;0.60;0.60;;;5.00;99.90;;;;;;5050493;28;20243;-80
2021/05/07 10:38:16;;;;;;;0.60;0.60;;;5.10;99.90;;;;;;5051001;28;20200;-79
2021/05/07 10:40:44;;;;;;;0.55;0.55;;;5.50;99.90;;;;;;5051268;28;20283;-79
2021/05/07 10:43:11;;;;;;;0.52;0.52;;;5.80;99.90;;;;;;5050943;28;20570;-79
2021/05/07 10:45:49;;;;;;;0.60;0.60;;;6.20;99.90;;;;;;5051100;28;20211;-79
2021/05/07 10:48:20;;;;;;;0.60;0.60;;;6.50;99.90;;;;;;5050874;28;20258;-79
2021/05/07 10:50:49;;;;;;;0.60;0.60;;;6.60;99.90;;;;;;5050268;28;20637;-80
2021/05/07 10:53:33;;;;;;;0.52;0.52;;;7.00;99.90;;;;;;5050850;28;20219;-79
2021/05/07 10:56:00;;;;;;;0.60;0.60;;;7.20;99.90;;;;;;5050628;28;20202;-79
2021/05/07 10:58:34;;;;;;;0.60;0.60;;;7.50;99.90;;;;;;5050788;28;20661;-79
2021/05/07 11:01:15;;;;;;;0.57;0.57;;;7.70;99.90;;;;;;5050897;28;20204;-79
2021/05/07 11:03:41;;;;;;;0.60;0.60;;;7.90;99.90;;;;;;5050521;28;20204;-79
2021/05/07 11:06:08;;;;;;;0.50;0.50;;;8.10;99.90;;;;;;5048836;28;20200;-79
2021/05/07 11:08:34;;;;;;;0.50;0.50;;;8.20;99.90;;;;;;5051494;28;20208;-79
2021/05/07 11:11:01;;;;;;;0.60;0.60;;;8.00;99.90;;;;;;5051112;28;20224;-80
2021/05/07 11:13:27;;;;;;;0.60;0.60;;;7.40;99.90;;;;;;5050980;28;20576;-79
2021/05/07 11:15:57;;;;;;;0.60;0.60;;;6.80;99.90;;;;;;5051438;28;20269;-79
2021/05/07 11:18:28;;;;;;;0.50;0.50;;;6.50;99.90;;;;;;5051320;28;20808;-79
2021/05/07 11:20:54;;;;;;;0.50;0.50;;;6.60;99.90;;;;;;5051612;28;20638;-79
2021/05/07 11:23:20;;;;;;;0.60;0.60;;;6.30;99.90;;;;;;5050855;28;20693;-79
2021/05/07 11:25:49;;;;;;;0.60;0.60;;;6.50;99.90;;;;;;5050790;28;20216;-80
2021/05/07 11:28:18;;;;;;;0.60;0.60;;;7.50;99.90;;;;;;5050978;28;20205;-80
2021/05/07 11:30:46;;;;;;;0.60;0.60;;;6.80;99.90;;;;;;5051249;28;20762;-81
2021/05/07 11:33:12;;;;;;;0.60;0.60;;;6.70;99.90;;;;;;5050741;28;20223;-80
2021/05/07 11:35:39;;;;;;;0.60;0.60;;;6.80;99.90;;;;;;5050690;28;20214;-80
2021/05/07 11:38:05;;;;;;;0.57;0.57;;;6.90;99.90;;;;;;5050846;28;20273;-79
2021/05/07 11:40:35;;;;;;;0.60;0.60;;;7.20;99.90;;;;;;5045314;28;20223;-79
2021/05/07 11:43:07;;;;;;;0.55;0.55;;;7.70;99.90;;;;;;5038685;28;20659;-79
2021/05/07 11:45:35;;;;;;;0.60;0.60;;;7.80;99.90;;;;;;5030673;28;20200;-79
2021/05/07 11:48:07;;;;;;;0.60;0.60;;;7.80;99.90;;;;;;5030756;28;20205;-79
2021/05/07 11:50:33;;;;;;;0.60;0.60;;;7.90;99.90;;;;;;5030370;28;20232;-79
2021/05/07 11:52:59;;;;;;;0.50;0.50;;;7.90;99.90;;;;;;5030664;28;20275;-80
2021/05/07 11:55:26;;;;;;;0.60;0.60;;;7.80;99.90;;;;;;5030495;28;20212;-79
2021/05/07 11:57:57;;;;;;;0.60;0.60;;;8.00;99.90;;;;;;5030404;28;20205;-79
2021/05/07 12:00:24;;;;;;;0.60;0.60;;;8.30;99.90;;;;;;5046712;28;20200;-80
2021/05/07 12:03:00;;;;;;;0.60;0.60;;;8.50;99.90;;;;;;5043739;28;20678;-80
2021/05/07 12:05:30;;;;;;;0.50;0.50;;;8.70;99.90;;;;;;5046847;28;20265;-79
2021/05/07 12:07:59;;;;;;;0.60;0.60;;;8.70;99.90;;;;;;5045056;28;20204;-79
2021/05/07 12:10:27;;;;;;;0.60;0.60;;;8.90;99.90;;;;;;5040971;28;20224;-79
2021/05/07 12:12:55;;;;;;;0.60;0.60;;;9.30;99.90;;;;;;5045281;28;20342;-79
2021/05/07 12:15:22;;;;;;;0.60;0.60;;;9.40;99.90;;;;;;5045149;28;20216;-79
2021/05/07 12:17:50;;;;;;;0.60;0.60;;;9.60;99.90;;;;;;5046640;28;20215;-79
2021/05/07 12:20:19;;;;;;;0.60;0.60;;;9.70;99.90;;;;;;5044768;28;20200;-79
2021/05/07 12:22:46;;;;;;;0.60;0.60;;;10.00;99.90;;;;;;5046477;28;20633;-81
2021/05/07 12:25:15;;;;;;;0.60;0.60;;;9.90;99.90;;;;;;5050268;28;20211;-80
2021/05/07 12:27:42;;;;;;;0.50;0.50;;;10.00;99.90;;;;;;5050120;28;20220;-81
2021/05/07 12:30:21;;;;;;;0.60;0.60;;;9.90;99.90;;;;;;5049747;28;20224;-81
2021/05/07 12:33:14;;;;;;;0.50;0.50;;;9.70;99.90;;;;;;5042365;28;20235;-81
2021/05/07 12:35:44;;;;;;;0.60;0.60;;;9.80;99.90;;;;;;5036680;28;20205;-80
2021/05/07 12:38:17;;;;;;;0.60;0.60;;;9.40;99.90;;;;;;5050324;28;20208;-81
2021/05/07 12:40:44;;;;;;;0.60;0.60;;;9.10;99.90;;;;;;5049437;28;20235;-80
2021/05/07 12:43:10;;;;;;;0.60;0.60;;;8.90;99.90;;;;;;5030298;28;20200;-80
2021/05/07 12:45:36;;;;;;;0.60;0.60;;;8.80;99.90;;;;;;5012304;28;20209;-80
2021/05/07 12:48:03;;;;;;;0.60;0.60;;;8.70;99.90;;;;;;5011964;28;20210;-81
2021/05/07 12:50:29;;;;;;;0.60;0.60;;;8.50;99.90;;;;;;5010670;28;20225;-78
2021/05/07 12:52:56;;;;;;;0.60;0.60;;;8.60;99.90;;;;;;5010124;28;20213;-79
2021/05/07 12:55:23;;;;;;;0.60;0.60;;;9.20;99.90;;;;;;5009762;28;20201;-79
2021/05/07 12:57:49;;;;;;;0.60;0.60;;;9.50;99.90;;;;;;5010239;28;20208;-79
2021/05/07 13:00:16;;;;;;;0.60;0.60;;;10.00;99.90;;;;;;5009860;28;20197;-80
2021/05/07 13:02:42;;;;;;;0.60;0.60;;;9.70;99.90;;;;;;5009743;28;20300;-79